Trufant, MI (49347)

3:56 AM EDT on August 28, 2016 (GMT -0400)
Rainbow Lake | | Change Station

Elev 909 ft 43.32 °N, 85.30 °W | Updated 10 seconds ago

Overcast
Overcast
71.6 °F
Feels Like 76 °F
N
1.8
Wind Variable Wind from NNW
Gusts 2.5 mph

Today
High -- | Low -- °F
--% Chance of Precip.
Yesterday
High -- | Low -- °F
Precip. -- in
Pressure 30.11 in
Visibility 10.0 miles
Clouds Overcast 800 ft
Heat Index 76 °F
Dew Point 58 °F
Humidity 61%
Rainfall 0.00 in
Snow Depth Not available.
7:01 AM 8:22 PM
Waning Crescent, 17% visible
METAR KRQB 280735Z AUTO 27005KT 10SM OVC008 22/22 A3011 RMK AO2 T02200215
Pressure 30.11 in
Visibility 10.0 miles
Clouds Overcast 800 ft
Heat Index 76 °F
Dew Point 58 °F
Humidity 61%
Rainfall 0.00 in
Snow Depth Not available.
7:01 AM 8:22 PM
Waning Crescent, 17% visible
METAR KRQB 280735Z AUTO 27005KT 10SM OVC008 22/22 A3011 RMK AO2 T02200215

10-Day Weather Forecast

Almanac

Astronomy

Aug. 28, 2016 Rise Set
Actual Time
Civil Twilight
Nautical Twilight
Astronomical Twilight
Moon
Length of Visible Light
Length of Day
Tomorrow will be .
, % of the Moon is Illuminated

Today's Extremes

State Highs State Lows

Community

WunderPhotos

Upload Photos

1,935,533 photos uploaded!

WunderBlog® & News

Nearby

Air Quality

  Air Quality AQ Index Pollutant
Not available.

Snow Depth

Station Depth Elevation

Earthquake Activity

City Distance Mag. Time & Date
Minimum magnitude displayed is 2.5.

Coastal Water Temperatures

Place Temperature

Stations

Nearby Weather Stations

Station Location Temp. Windchill Dew Point Humidity Wind Precip. Elev Updated Type
                   

Watches & Warnings

There are currently no watches in effect.